Time;durP1;ratioP1;P1;durP2;ratioP2;P2;SDS_P1;SDS_P2;PMS_P1;PMS_P2;Temp;Humidity;BMP_temperature;BMP_pressure;BME280_temperature;BME280_humidity;BME280_pressure;Samples;Min_cycle;Max_cycle;Signal;HPM_P1;HPM_P2
2022/09/13 00:02:07;;;;;;;13.38;6.15;;;;;;;-143.48;60.00;77542.22;5074046;28;20021;-42
2022/09/13 00:04:33;;;;;;;13.23;6.93;;;;;;;-143.48;60.51;77550.16;5074263;28;20027;-42
2022/09/13 00:06:58;;;;;;;10.63;7.13;;;;;;;-143.48;61.24;77550.16;5074205;28;20036;-49
2022/09/13 00:09:23;;;;;;;10.52;7.35;;;;;;;-143.48;60.95;77552.13;5074192;28;20029;-41
2022/09/13 00:11:50;;;;;;;10.55;7.35;;;;;;;-143.48;60.91;77532.31;5073472;28;20464;-39
2022/09/13 00:14:15;;;;;;;13.68;7.72;;;;;;;-143.48;60.27;77518.44;5072940;28;20027;-42
2022/09/13 00:16:41;;;;;;;11.40;8.45;;;;;;;-143.48;59.41;77510.50;5074281;28;20107;-41
2022/09/13 00:19:06;;;;;;;10.93;7.55;;;;;;;-143.48;60.88;77522.38;5073515;28;20025;-42
2022/09/13 00:21:31;;;;;;;11.13;7.03;;;;;;;-143.48;61.55;77564.03;5073302;28;20069;-42
2022/09/13 00:23:57;;;;;;;11.32;7.03;;;;;;;-143.48;62.70;77577.91;5073928;28;20016;-42
2022/09/13 00:26:25;;;;;;;15.85;7.53;;;;;;;-143.48;62.83;77569.97;5073848;28;20021;-41
2022/09/13 00:28:53;;;;;;;11.15;7.57;;;;;;;-143.48;63.22;77573.94;5073780;28;20065;-41
2022/09/13 00:31:20;;;;;;;12.73;7.25;;;;;;;-143.48;63.26;77573.94;5073535;28;20036;-41
2022/09/13 00:33:46;;;;;;;13.60;7.53;;;;;;;-143.48;63.38;77577.91;5073688;28;20025;-42
2022/09/13 00:36:12;;;;;;;10.77;7.63;;;;;;;-143.48;63.08;77562.06;5073426;28;20484;-41
2022/09/13 00:38:39;;;;;;;9.15;7.28;;;;;;;-143.48;62.84;77552.13;5073530;28;20427;-41
2022/09/13 00:41:07;;;;;;;13.63;7.28;;;;;;;-143.48;63.72;77556.09;5073449;28;20486;-41
2022/09/13 00:44:00;;;;;;;15.23;8.02;;;;;;;-143.48;63.54;77564.03;5073553;28;20111;-41
2022/09/13 00:46:45;;;;;;;12.65;7.80;;;;;;;-143.48;64.16;77581.88;5069594;28;20040;-41
2022/09/13 00:49:34;;;;;;;16.23;8.55;;;;;;;-143.48;63.90;77575.94;5073866;28;20036;-41
2022/09/13 00:52:07;;;;;;;13.10;7.03;;;;;;;-143.48;64.06;77591.78;5073591;28;20024;-41
2022/09/13 00:54:39;;;;;;;8.48;6.75;;;;;;;-143.48;65.40;77607.66;5073817;28;20097;-41
2022/09/13 00:57:06;;;;;;;11.90;7.20;;;;;;;-143.48;65.32;77591.78;5073254;28;20467;-40
2022/09/13 00:59:38;;;;;;;13.32;7.63;;;;;;;-143.48;65.09;77597.75;5073308;28;20535;-41
2022/09/13 01:02:04;;;;;;;13.38;7.90;;;;;;;-143.48;65.93;77597.75;5073332;28;20379;-42
2022/09/13 01:04:33;;;;;;;12.88;8.40;;;;;;;-143.48;65.72;77599.72;5073570;28;20025;-41
2022/09/13 01:07:03;;;;;;;12.23;8.60;;;;;;;-143.48;65.21;77599.72;5073432;28;20024;-40
2022/09/13 01:09:30;;;;;;;15.13;8.77;;;;;;;-143.48;65.65;77605.66;5073712;28;20071;-41
2022/09/13 01:12:02;;;;;;;17.88;8.90;;;;;;;-143.48;65.88;77607.66;5072971;28;20040;-41
2022/09/13 01:14:28;;;;;;;17.50;9.32;;;;;;;-143.48;66.62;77631.44;5073110;28;20032;-41
2022/09/13 01:16:53;;;;;;;12.65;8.70;;;;;;;-143.48;67.21;77639.38;5073428;28;20428;-41
2022/09/13 01:19:19;;;;;;;13.77;9.38;;;;;;;-143.48;66.99;77635.41;5073352;28;20020;-41
2022/09/13 01:22:15;;;;;;;12.57;9.25;;;;;;;-143.48;66.94;77619.56;5055059;28;20024;-41
2022/09/13 01:25:18;;;;;;;15.95;10.93;;;;;;;-143.48;66.64;77613.59;5055144;28;20033;-41
2022/09/13 01:28:25;;;;;;;14.48;9.23;;;;;;;-143.48;67.21;77613.59;5073290;28;20039;-41
2022/09/13 01:31:03;;;;;;;14.45;10.32;;;;;;;-143.48;67.18;77613.59;4972456;28;20117;-41
2022/09/13 01:33:46;;;;;;;18.95;9.85;;;;;;;-143.48;67.12;77607.66;5064507;28;20032;-41
2022/09/13 01:36:38;;;;;;;15.77;9.88;;;;;;;-143.48;67.37;77625.50;5072925;28;20085;-42
2022/09/13 01:39:31;;;;;;;14.80;9.93;;;;;;;-143.48;68.01;77639.38;5074015;28;20466;-41
2022/09/13 01:42:09;;;;;;;17.15;10.07;;;;;;;-143.48;68.31;77641.38;5073100;28;20032;-41
2022/09/13 01:44:37;;;;;;;17.20;11.38;;;;;;;-143.48;67.86;77617.56;5055137;28;20506;-41
2022/09/13 01:47:22;;;;;;;20.08;12.15;;;;;;;-143.48;67.29;77597.75;5072738;28;20050;-42
2022/09/13 01:50:11;;;;;;;21.30;12.80;;;;;;;-143.48;67.04;77589.81;5073068;28;20029;-40
2022/09/13 01:53:06;;;;;;;15.57;11.07;;;;;;;-143.48;67.77;77607.66;5072791;28;20029;-41
2022/09/13 01:55:39;;;;;;;19.13;10.93;;;;;;;-143.48;68.46;77625.50;5073834;28;20024;-40
2022/09/13 01:58:15;;;;;;;19.00;12.13;;;;;;;-143.48;68.45;77627.47;5076680;28;20047;-41
2022/09/13 02:00:51;;;;;;;20.23;11.38;;;;;;;-143.48;68.28;77623.50;5076935;28;20430;-42
2022/09/13 02:03:22;;;;;;;17.85;11.68;;;;;;;-143.48;68.59;77623.50;5077062;28;20031;-42
2022/09/13 02:06:05;;;;;;;18.35;12.02;;;;;;;-143.48;69.19;77627.47;5076811;28;20047;-43
2022/09/13 02:08:38;;;;;;;19.38;12.50;;;;;;;-143.48;68.80;77623.50;5076546;28;20111;-43
2022/09/13 02:11:09;;;;;;;18.17;11.80;;;;;;;-143.48;68.96;77627.47;5076251;28;20044;-40
2022/09/13 02:13:40;;;;;;;22.50;13.15;;;;;;;-143.48;69.40;77623.50;5076037;28;20266;-41
2022/09/13 02:16:33;;;;;;;26.10;13.13;;;;;;;-143.48;69.54;77617.56;5076285;28;20024;-41
2022/09/13 02:19:06;;;;;;;25.75;13.65;;;;;;;-143.48;69.43;77621.53;5076027;28;20031;-41
2022/09/13 02:21:38;;;;;;;19.20;12.35;;;;;;;-143.48;69.68;77621.53;5075988;28;20426;-42
2022/09/13 02:24:09;;;;;;;19.52;12.45;;;;;;;-143.48;70.16;77637.41;5076179;28;20523;-42
2022/09/13 02:26:38;;;;;;;20.30;12.68;;;;;;;-143.48;69.64;77629.47;5076458;28;20028;-41
2022/09/13 02:29:09;;;;;;;17.02;10.75;;;;;;;-143.48;69.47;77627.47;5076085;28;20025;-41
2022/09/13 02:31:55;;;;;;;18.63;11.15;;;;;;;-143.48;69.35;77617.56;5076045;28;20464;-41
2022/09/13 02:34:24;;;;;;;23.48;12.10;;;;;;;-143.48;69.56;77623.50;5075936;28;20447;-42
2022/09/13 02:36:54;;;;;;;18.75;11.60;;;;;;;-143.48;69.47;77619.56;5075636;28;20024;-41
2022/09/13 02:39:23;;;;;;;21.33;13.00;;;;;;;-143.48;69.14;77601.72;5075671;28;20025;-41
2022/09/13 02:42:03;;;;;;;20.70;12.27;;;;;;;-143.48;68.52;77589.81;5057610;28;20029;-41
2022/09/13 02:44:39;;;;;;;18.42;11.63;;;;;;;-143.48;68.16;77599.72;5075512;28;20024;-41
2022/09/13 02:47:32;;;;;;;17.17;11.65;;;;;;;-143.48;68.08;77599.72;5075411;28;20024;-41
2022/09/13 02:50:00;;;;;;;17.48;11.35;;;;;;;-143.48;68.53;77601.72;5075650;28;20111;-41
2022/09/13 02:52:54;;;;;;;17.17;11.38;;;;;;;-143.48;68.63;77601.72;5075576;28;20479;-41
2022/09/13 02:56:01;;;;;;;17.15;11.20;;;;;;;-143.48;68.83;77593.78;5024597;28;20090;-40
2022/09/13 02:58:38;;;;;;;17.98;12.40;;;;;;;-143.48;68.41;77587.81;5075254;28;20548;-39
2022/09/13 03:01:03;;;;;;;17.98;11.80;;;;;;;-143.48;68.13;77585.84;5075281;28;20550;-41
2022/09/13 03:03:29;;;;;;;17.67;11.63;;;;;;;-143.48;68.98;77597.75;5075712;28;20055;-40
2022/09/13 03:05:54;;;;;;;21.20;12.57;;;;;;;-143.48;69.05;77597.75;5075676;28;20343;-40
2022/09/13 03:08:20;;;;;;;20.38;11.95;;;;;;;-143.48;69.69;77599.72;5074025;28;20059;-40
2022/09/13 03:11:01;;;;;;;25.15;13.00;;;;;;;-143.48;69.38;77605.66;5075416;28;20411;-41
2022/09/13 03:13:49;;;;;;;22.23;12.60;;;;;;;-143.48;70.06;77611.63;5075191;28;20478;-41
2022/09/13 03:16:44;;;;;;;18.33;12.18;;;;;;;-143.48;70.44;77621.53;5074980;28;20028;-40
2022/09/13 03:19:36;;;;;;;19.83;11.77;;;;;;;-143.48;70.42;77619.56;5065550;28;20090;-41
2022/09/13 03:22:19;;;;;;;20.17;12.98;;;;;;;-143.48;70.84;77625.50;5075100;28;20078;-41
2022/09/13 03:24:44;;;;;;;;;;;;;;;-143.48;70.66;77625.50;5075426;28;20024;-47
2022/09/13 03:27:16;;;;;;;19.07;12.07;;;;;;;-143.48;71.29;77635.41;5075245;28;19914;-46
2022/09/13 03:30:01;;;;;;;20.13;11.80;;;;;;;-143.48;71.30;77625.50;5074644;28;20032;-42
2022/09/13 03:33:08;;;;;;;22.20;11.90;;;;;;;-143.48;71.32;77623.50;5074589;28;20036;-46
2022/09/13 03:35:56;;;;;;;19.95;11.60;;;;;;;-143.48;70.94;77615.59;5040966;28;20044;-39
2022/09/13 03:38:31;;;;;;;22.35;12.77;;;;;;;-143.48;70.89;77617.56;5039979;28;20029;-40
2022/09/13 03:41:04;;;;;;;19.08;12.38;;;;;;;-143.48;70.36;77611.63;5074623;28;20163;-41
2022/09/13 03:43:40;;;;;;;20.73;12.23;;;;;;;-143.48;70.86;77617.56;5074663;28;20055;-41
2022/09/13 03:46:11;;;;;;;17.17;11.27;;;;;;;-143.48;70.92;77627.47;5074814;28;20027;-40
2022/09/13 03:48:39;;;;;;;17.58;10.10;;;;;;;-143.48;70.92;77617.56;5075315;28;20101;-40
2022/09/13 03:51:05;;;;;;;16.30;9.95;;;;;;;-143.48;71.15;77629.47;5056574;28;20047;-41
2022/09/13 03:53:35;;;;;;;15.57;9.35;;;;;;;-143.48;71.24;77633.44;5074369;28;20024;-41
2022/09/13 03:56:14;;;;;;;11.80;8.60;;;;;;;-143.48;71.61;77627.47;5056754;28;20483;-40
2022/09/13 03:58:40;;;;;;;12.48;8.38;;;;;;;-143.48;71.45;77633.44;5074383;28;20021;-39
2022/09/13 04:01:05;;;;;;;18.38;11.13;;;;;;;-143.48;71.63;77631.44;5074259;28;20529;-40
2022/09/13 04:03:31;;;;;;;21.38;11.90;;;;;;;-143.48;71.15;77633.44;5074209;28;20024;-40
2022/09/13 04:05:56;;;;;;;18.55;9.95;;;;;;;-143.48;71.66;77631.44;5073917;28;20109;-41
2022/09/13 04:08:21;;;;;;;22.75;12.40;;;;;;;-143.48;71.63;77635.41;5074200;28;20028;-41
2022/09/13 04:10:49;;;;;;;20.13;12.77;;;;;;;-143.48;71.66;77647.31;5073921;28;20024;-41
2022/09/13 04:13:14;;;;;;;19.38;12.07;;;;;;;-143.48;72.05;77647.31;5073791;28;20054;-41
2022/09/13 04:15:40;;;;;;;21.45;11.68;;;;;;;-143.48;72.02;77641.38;5073920;28;20025;-41
2022/09/13 04:18:05;;;;;;;22.35;12.02;;;;;;;-143.48;72.21;77649.28;5074059;28;20030;-41
2022/09/13 04:20:30;;;;;;;20.45;12.88;;;;;;;-143.48;72.34;77657.22;5074063;28;20028;-41
2022/09/13 04:22:56;;;;;;;18.92;12.45;;;;;;;-143.48;72.62;77675.06;5073685;28;20033;-40
2022/09/13 04:25:23;;;;;;;20.98;12.80;;;;;;;-143.48;73.22;77679.03;5073907;28;20104;-41
2022/09/13 04:27:53;;;;;;;19.60;11.95;;;;;;;-143.48;73.23;77686.97;5073564;28;20031;-41
2022/09/13 04:30:18;;;;;;;18.95;10.55;;;;;;;-143.48;73.64;77698.88;5073860;28;20032;-41
2022/09/13 04:32:43;;;;;;;17.67;9.73;;;;;;;-143.48;73.81;77700.84;5073438;28;20031;-42
2022/09/13 04:35:10;;;;;;;14.82;9.75;;;;;;;-143.48;74.15;77720.69;5073992;28;20028;-41
2022/09/13 04:37:36;;;;;;;17.08;9.63;;;;;;;-143.48;74.07;77720.69;5073704;28;20059;-41
2022/09/13 04:40:02;;;;;;;16.17;9.48;;;;;;;-143.48;74.17;77710.75;5073796;28;20028;-42
2022/09/13 04:42:27;;;;;;;14.60;9.02;;;;;;;-143.48;74.25;77706.78;5073955;28;20035;-40
2022/09/13 04:44:53;;;;;;;15.00;9.32;;;;;;;-143.48;74.18;77708.78;5073700;28;20367;-41
2022/09/13 04:47:19;;;;;;;14.70;9.65;;;;;;;-143.48;74.09;77714.72;5073340;28;20471;-42
2022/09/13 04:49:44;;;;;;;15.10;9.73;;;;;;;-143.48;74.51;77716.72;5073658;28;20043;-40
2022/09/13 04:52:09;;;;;;;14.95;9.90;;;;;;;-143.48;74.82;77724.63;5073380;28;20593;-41
2022/09/13 04:54:34;;;;;;;23.30;12.18;;;;;;;-143.48;75.84;77732.56;5073569;28;20029;-41
2022/09/13 04:57:00;;;;;;;22.88;14.25;;;;;;;-143.48;74.50;77704.81;5073570;28;20103;-41
2022/09/13 04:59:25;;;;;;;28.75;15.88;;;;;;;-143.48;74.17;77712.75;5073836;28;20394;-42
2022/09/13 05:01:51;;;;;;;29.52;16.48;;;;;;;-143.48;73.79;77704.81;5055177;28;20024;-43
2022/09/13 05:04:16;;;;;;;34.00;18.30;;;;;;;-143.48;73.86;77720.69;5055307;28;20066;-41
2022/09/13 05:06:41;;;;;;;30.15;17.25;;;;;;;-143.48;73.71;77718.69;5073457;28;20017;-41
2022/09/13 05:09:12;;;;;;;26.02;16.48;;;;;;;-143.48;74.37;77720.69;5073453;28;20025;-41
2022/09/13 05:11:37;;;;;;;30.83;17.67;;;;;;;-143.48;74.48;77718.69;5073105;28;20445;-41
2022/09/13 05:14:04;;;;;;;34.95;19.60;;;;;;;-143.48;74.49;77710.75;5073025;28;20025;-41
2022/09/13 05:16:32;;;;;;;30.75;18.63;;;;;;;-143.48;74.48;77700.84;5073035;28;20021;-42
2022/09/13 05:18:58;;;;;;;32.95;19.15;;;;;;;-143.48;74.07;77698.88;5073058;28;20031;-41
2022/09/13 05:21:24;;;;;;;32.53;19.38;;;;;;;-143.48;73.90;77698.88;5073100;28;20506;-41
2022/09/13 05:23:50;;;;;;;33.85;19.65;;;;;;;-143.48;73.72;77696.88;5073000;28;20016;-40
2022/09/13 05:26:17;;;;;;;34.25;19.27;;;;;;;-143.48;74.12;77692.91;5073346;28;20036;-42
2022/09/13 05:28:43;;;;;;;31.30;19.45;;;;;;;-143.48;74.22;77696.88;5055051;28;20032;-47
2022/09/13 05:31:17;;;;;;;39.33;20.33;;;;;;;-143.48;74.17;77683.00;5056882;28;20471;-40
2022/09/13 05:33:43;;;;;;;31.25;19.10;;;;;;;-143.48;74.16;77679.03;5076702;28;20079;-46
2022/09/13 05:36:09;;;;;;;32.45;19.08;;;;;;;-143.48;73.69;77679.03;5076964;28;20024;-45
2022/09/13 05:38:34;;;;;;;33.67;19.77;;;;;;;-143.48;73.73;77675.06;5076996;28;20021;-43
2022/09/13 05:41:01;;;;;;;30.67;19.35;;;;;;;-143.48;73.40;77671.09;5077400;28;20048;-41
2022/09/13 05:43:29;;;;;;;36.70;22.45;;;;;;;-143.48;73.33;77665.16;5076633;28;20441;-41
2022/09/13 05:46:10;;;;;;;42.13;22.10;;;;;;;-143.48;72.64;77647.31;5076944;28;20046;-41
2022/09/13 05:48:36;;;;;;;40.10;21.80;;;;;;;-143.48;73.11;77657.22;5076991;28;20111;-42
2022/09/13 05:51:06;;;;;;;37.42;21.35;;;;;;;-143.48;73.11;77651.28;5058510;28;20070;-41
2022/09/13 05:53:32;;;;;;;38.95;22.67;;;;;;;-143.48;73.07;77645.31;5076378;28;20336;-41
2022/09/13 05:55:58;;;;;;;39.30;21.95;;;;;;;-143.48;73.36;77653.25;5076227;28;20024;-40
2022/09/13 05:58:23;;;;;;;39.55;23.58;;;;;;;-143.48;73.64;77647.31;5076562;28;20093;-40
2022/09/13 06:00:56;;;;;;;36.75;21.95;;;;;;;-143.48;73.78;77643.34;5076516;28;20020;-41
2022/09/13 06:03:22;;;;;;;;;;;;;;;-143.48;74.19;77647.31;5076541;28;20035;-41
2022/09/13 06:05:48;;;;;;;42.13;22.10;;;;;;;-143.48;73.83;77651.28;5076040;28;20003;-44
2022/09/13 06:08:13;;;;;;;42.60;21.65;;;;;;;-143.48;74.12;77649.28;5058128;28;20056;-41
2022/09/13 06:10:39;;;;;;;37.22;20.75;;;;;;;-143.48;74.36;77645.31;5076122;28;20070;-42
2022/09/13 06:13:04;;;;;;;39.58;23.00;;;;;;;-143.48;73.75;77639.38;5075864;28;20044;-42
2022/09/13 06:15:29;;;;;;;40.55;23.00;;;;;;;-143.48;73.93;77637.41;5075843;28;20100;-41
2022/09/13 06:17:55;;;;;;;36.00;21.75;;;;;;;-143.48;73.82;77633.44;5076246;28;20418;-42
2022/09/13 06:20:25;;;;;;;34.35;21.73;;;;;;;-143.48;73.71;77621.53;5075983;28;20059;-45
2022/09/13 06:22:53;;;;;;;37.85;20.55;;;;;;;-143.48;73.39;77623.50;5075966;28;20073;-41
2022/09/13 06:25:18;;;;;;;37.22;21.40;;;;;;;-143.48;73.27;77617.56;5041762;28;20035;-40
2022/09/13 06:27:44;;;;;;;36.97;21.50;;;;;;;-143.48;72.71;77609.63;5057849;28;20029;-39
2022/09/13 06:30:11;;;;;;;35.15;21.10;;;;;;;-143.48;73.24;77619.56;5075906;28;20371;-41
2022/09/13 06:32:37;;;;;;;34.42;20.63;;;;;;;-143.48;74.28;77641.38;5074925;28;20024;-42
2022/09/13 06:35:02;;;;;;;31.60;19.88;;;;;;;-143.48;74.25;77631.44;5076309;28;20104;-39
2022/09/13 06:37:27;;;;;;;30.58;18.42;;;;;;;-143.48;75.31;77647.31;5057549;28;20475;-40
2022/09/13 06:39:53;;;;;;;33.05;18.25;;;;;;;-143.48;75.25;77633.44;5075906;28;20035;-40
2022/09/13 06:42:18;;;;;;;27.58;17.27;;;;;;;-143.48;75.66;77645.31;5075535;28;20084;-40
2022/09/13 06:44:47;;;;;;;26.67;15.77;;;;;;;-143.48;71.98;77607.66;5075822;28;20417;-39
2022/09/13 06:47:12;;;;;;;28.75;15.43;;;;;;;-143.48;73.44;77607.66;5075394;28;20103;-38
2022/09/13 06:49:38;;;;;;;27.65;15.73;;;;;;;-143.48;74.27;77617.56;5075566;28;20236;-40
2022/09/13 06:52:03;;;;;;;26.48;15.23;;;;;;;-143.48;74.37;77605.66;5075641;28;20045;-41
2022/09/13 06:54:29;;;;;;;26.83;15.23;;;;;;;-143.48;74.35;77603.69;5057257;28;20024;-41
2022/09/13 06:56:54;;;;;;;26.42;15.02;;;;;;;-143.48;74.01;77591.78;5075473;28;20461;-42
2022/09/13 06:59:20;;;;;;;23.73;13.93;;;;;;;-143.48;73.75;77575.94;5075259;28;20539;-41
2022/09/13 07:01:45;;;;;;;23.52;13.52;;;;;;;-143.48;73.38;77568.00;5057180;28;20055;-41
2022/09/13 07:04:14;;;;;;;22.83;13.20;;;;;;;-143.48;72.96;77577.91;5075199;28;20112;-40
2022/09/13 07:06:42;;;;;;;21.33;11.95;;;;;;;-143.48;73.70;77564.03;5075037;28;20024;-41
2022/09/13 07:09:11;;;;;;;21.25;11.55;;;;;;;-143.48;73.07;77538.25;5074728;28;20031;-42
2022/09/13 07:11:38;;;;;;;23.73;12.15;;;;;;;-143.48;72.61;77546.19;5074130;28;20101;-40
2022/09/13 07:14:08;;;;;;;18.08;11.15;;;;;;;-143.48;73.00;77556.09;5074031;28;20024;-41
2022/09/13 07:16:36;;;;;;;19.13;11.00;;;;;;;-143.48;73.03;77550.16;5074330;28;20455;-40
2022/09/13 07:19:25;;;;;;;15.65;9.10;;;;;;;-143.48;73.14;77566.00;5074301;28;20406;-40
2022/09/13 07:21:51;;;;;;;14.95;8.07;;;;;;;-143.48;72.32;77540.25;5074659;28;20024;-40
2022/09/13 07:24:17;;;;;;;17.20;7.80;;;;;;;-143.48;72.21;77534.28;5075019;28;20094;-40
2022/09/13 07:26:43;;;;;;;15.77;7.15;;;;;;;-143.48;72.03;77532.31;5073989;28;20077;-41
2022/09/13 07:29:13;;;;;;;14.25;6.18;;;;;;;-143.48;71.47;77518.44;5074128;28;20030;-40
2022/09/13 07:31:41;;;;;;;10.45;5.85;;;;;;;-143.48;70.15;77482.75;5074615;28;20031;-40
2022/09/13 07:34:11;;;;;;;13.80;5.97;;;;;;;-143.48;69.94;77478.78;5074458;28;20040;-40
2022/09/13 07:36:37;;;;;;;9.60;4.30;;;;;;;-143.48;70.10;77506.53;5074417;28;20051;-41
2022/09/13 07:39:03;;;;;;;7.50;3.70;;;;;;;-143.48;69.75;77502.56;5074667;28;20117;-40
2022/09/13 07:41:30;;;;;;;9.60;3.83;;;;;;;-143.48;69.84;77506.53;5074899;28;20085;-41
2022/09/13 07:43:56;;;;;;;8.73;3.00;;;;;;;-143.48;69.14;77504.53;5074344;28;20028;-41
2022/09/13 07:46:27;;;;;;;7.75;3.05;;;;;;;-143.48;68.76;77488.69;5074736;28;20030;-41
2022/09/13 07:48:55;;;;;;;6.80;2.70;;;;;;;-143.48;68.74;77482.75;5056153;28;20115;-39
2022/09/13 07:51:22;;;;;;;7.38;2.70;;;;;;;-143.48;67.85;77464.88;5074442;28;20031;-38
2022/09/13 07:53:50;;;;;;;9.63;2.30;;;;;;;-143.48;67.34;77474.81;5072806;28;20031;-39
2022/09/13 07:56:21;;;;;;;6.72;2.20;;;;;;;-143.48;66.51;77474.81;5074160;28;20028;-41
2022/09/13 07:58:48;;;;;;;5.90;1.98;;;;;;;-143.48;66.05;77478.78;5074463;28;20032;-41
2022/09/13 08:01:18;;;;;;;3.15;1.70;;;;;;;-143.48;66.29;77458.94;5073582;28;20033;-41
2022/09/13 08:03:44;;;;;;;5.68;2.00;;;;;;;-143.48;65.62;77458.94;5073761;28;20032;-44
2022/09/13 08:06:09;;;;;;;3.33;1.70;;;;;;;-143.48;64.58;77449.03;5072887;28;20024;-40
2022/09/13 08:08:36;;;;;;;6.45;1.92;;;;;;;-143.48;63.37;77409.38;5073397;28;20379;-39
2022/09/13 08:11:03;;;;;;;4.47;1.50;;;;;;;-143.48;60.65;77338.00;5074035;28;20106;-38
2022/09/13 08:13:31;;;;;;;8.48;1.73;;;;;;;-143.48;59.82;77284.47;5073980;28;20094;-40
2022/09/13 08:16:01;;;;;;;4.10;1.60;;;;;;;-143.48;59.17;77278.50;5074714;28;20099;-40
2022/09/13 08:18:27;;;;;;;3.97;1.50;;;;;;;-143.48;57.75;77244.81;5074086;28;20038;-40
2022/09/13 08:20:57;;;;;;;4.47;1.35;;;;;;;-143.48;55.54;77155.59;5073500;28;20095;-40
2022/09/13 08:23:23;;;;;;;6.28;1.50;;;;;;;-143.48;55.35;77155.59;5056030;28;20663;-40
2022/09/13 08:25:48;;;;;;;3.70;1.40;;;;;;;-143.48;55.85;77187.31;5073479;28;20023;-41
2022/09/13 08:28:16;;;;;;;3.88;1.33;;;;;;;-143.48;53.57;77078.28;5055896;28;20356;-40
2022/09/13 08:30:43;;;;;;;4.97;1.20;;;;;;;-143.48;48.50;76824.50;5055030;28;20477;-40
2022/09/13 08:33:10;;;;;;;6.18;1.50;;;;;;;-143.48;42.94;76566.78;5074163;28;20025;-39
2022/09/13 08:35:36;;;;;;;4.43;1.30;;;;;;;-143.48;42.62;76558.88;5073495;28;20051;-41
2022/09/13 08:38:03;;;;;;;4.68;1.10;;;;;;;-143.48;42.48;76598.50;5073414;28;20024;-41
2022/09/13 08:40:47;;;;;;;6.28;1.27;;;;;;;-143.48;44.50;76731.34;5055387;28;20086;-41
2022/09/13 08:43:18;;;;;;;6.07;1.25;;;;;;;-143.48;47.08;76885.97;5055383;28;20048;-44
2022/09/13 08:46:05;;;;;;;5.73;1.53;;;;;;;-143.48;50.37;77076.28;5073681;28;20402;-43
2022/09/13 08:48:38;;;;;;;3.00;1.17;;;;;;;-143.48;51.14;77104.03;5073786;28;20021;-44
2022/09/13 08:51:13;;;;;;;5.22;1.30;;;;;;;-143.48;51.36;77096.13;5073328;28;20067;-44
2022/09/13 08:53:47;;;;;;;3.75;1.30;;;;;;;-143.48;52.10;77121.88;5055254;28;20418;-43
2022/09/13 08:56:26;;;;;;;5.35;1.25;;;;;;;-143.48;51.58;77129.81;5073579;28;20025;-43
2022/09/13 08:59:21;;;;;;;4.30;1.20;;;;;;;-143.48;54.05;77234.91;5038655;28;20021;-43
2022/09/13 09:02:01;;;;;;;5.50;1.00;;;;;;;-143.48;54.87;77260.66;5055217;28;20098;-42
2022/09/13 09:04:26;;;;;;;4.30;1.40;;;;;;;-143.48;55.85;77270.59;5055274;28;20025;-44
2022/09/13 09:07:16;;;;;;;3.78;1.30;;;;;;;-143.48;54.48;77201.19;5076710;28;20020;-44
2022/09/13 09:09:51;;;;;;;3.10;1.02;;;;;;;-143.48;53.68;77193.25;5062034;28;20036;-44
2022/09/13 09:12:26;;;;;;;5.10;1.00;;;;;;;-143.48;53.38;77191.28;5059068;28;20068;-44
2022/09/13 09:15:02;;;;;;;4.82;1.10;;;;;;;-143.48;53.15;77183.34;5077284;28;20029;-44
2022/09/13 09:17:36;;;;;;;4.47;1.15;;;;;;;-143.48;52.48;77135.75;5077191;28;20035;-44
2022/09/13 09:20:27;;;;;;;5.72;1.35;;;;;;;-143.48;53.85;77230.94;5059140;28;20028;-44
2022/09/13 09:22:54;;;;;;;5.05;1.30;;;;;;;-143.48;55.58;77306.28;5077286;28;20013;-43
2022/09/13 09:25:23;;;;;;;4.72;1.38;;;;;;;-143.48;56.46;77330.06;5077108;28;20356;-44
2022/09/13 09:27:49;;;;;;;8.52;1.60;;;;;;;-143.48;56.03;77318.16;5077558;28;20023;-42
2022/09/13 09:30:15;;;;;;;7.38;1.27;;;;;;;-143.48;57.55;77330.06;5059449;28;20028;-43
2022/09/13 09:33:00;;;;;;;7.65;1.40;;;;;;;-143.48;56.36;77304.28;5058857;28;20028;-42
2022/09/13 09:35:28;;;;;;;5.75;1.67;;;;;;;-143.48;56.21;77312.22;5058809;28;20472;-44
2022/09/13 09:38:23;;;;;;;5.47;1.33;;;;;;;-143.48;55.32;77252.75;5076915;28;20400;-42
2022/09/13 09:40:49;;;;;;;5.78;1.60;;;;;;;-143.48;52.65;77167.50;5058858;28;20097;-44
2022/09/13 09:43:30;;;;;;;5.18;1.40;;;;;;;-143.48;51.92;77100.06;5076927;28;20020;-44
2022/09/13 09:45:56;;;;;;;4.47;1.27;;;;;;;-143.48;50.58;77044.56;5076595;28;20044;-44
2022/09/13 09:48:28;;;;;;;3.25;1.20;;;;;;;-143.48;49.95;76987.06;5058513;28;20123;-44
2022/09/13 09:50:59;;;;;;;4.72;1.40;;;;;;;-143.48;48.18;76937.50;5058610;28;20031;-42
2022/09/13 09:53:38;;;;;;;5.93;1.27;;;;;;;-143.48;47.99;76903.81;5076773;28;20526;-44
2022/09/13 09:56:25;;;;;;;6.45;1.42;;;;;;;-143.48;46.35;76909.75;5076520;28;20031;-42
2022/09/13 09:58:54;;;;;;;6.28;1.60;;;;;;;-143.48;49.04;77028.72;5076622;28;20028;-44
2022/09/13 10:01:24;;;;;;;3.78;1.00;;;;;;;-143.48;49.10;77034.66;5076564;28;20021;-44
2022/09/13 10:04:02;;;;;;;5.07;1.52;;;;;;;-143.48;48.34;76949.41;5076775;28;20035;-44
2022/09/13 10:06:29;;;;;;;7.15;1.52;;;;;;;-143.48;48.70;76987.06;5076707;28;20360;-43
2022/09/13 10:09:05;;;;;;;6.57;1.73;;;;;;;-143.48;48.12;76935.53;5076196;28;20078;-43
2022/09/13 10:11:50;;;;;;;3.10;1.35;;;;;;;-143.48;47.20;76969.22;5076178;28;20052;-43
2022/09/13 10:14:33;;;;;;;6.80;1.48;;;;;;;-143.48;47.24;76949.41;5057993;28;20027;-43
2022/09/13 10:17:16;;;;;;;3.33;1.17;;;;;;;-143.48;45.62;76874.06;5057603;28;20032;-45
2022/09/13 10:20:00;;;;;;;4.55;1.40;;;;;;;-143.48;43.75;76770.97;5076283;28;20464;-44
2022/09/13 10:22:28;;;;;;;4.47;1.40;;;;;;;-143.48;43.53;76792.78;5076374;28;20097;-43
2022/09/13 10:24:54;;;;;;;4.90;1.33;;;;;;;-143.48;44.80;76838.38;5076257;28;20035;-45
2022/09/13 10:27:30;;;;;;;5.20;1.40;;;;;;;-143.48;47.08;76987.06;5075790;28;20473;-46
2022/09/13 10:29:58;;;;;;;4.88;1.30;;;;;;;-143.48;48.32;77048.53;5075996;28;20031;-43
2022/09/13 10:32:25;;;;;;;3.78;1.25;;;;;;;-143.48;47.78;77010.88;5076239;28;20112;-44
2022/09/13 10:34:52;;;;;;;4.53;1.23;;;;;;;-143.48;46.83;76951.38;5075431;28;20087;-44
2022/09/13 10:37:21;;;;;;;5.60;1.40;;;;;;;-143.48;45.21;76909.75;5075609;28;20036;-44
2022/09/13 10:39:50;;;;;;;4.45;1.38;;;;;;;-143.48;45.37;76848.28;5075583;28;20390;-43
2022/09/13 10:42:22;;;;;;;6.57;1.38;;;;;;;-143.48;45.10;76878.03;5075402;28;20367;-43
2022/09/13 10:45:00;;;;;;;7.80;1.65;;;;;;;-143.48;45.14;76937.50;5075459;28;20050;-45
2022/09/13 10:47:42;;;;;;;4.60;1.58;;;;;;;-143.48;46.76;77072.31;5075548;28;20486;-44
2022/09/13 10:50:16;;;;;;;5.72;1.50;;;;;;;-143.48;48.60;77119.91;5075661;28;20013;-44
2022/09/13 10:52:53;;;;;;;4.82;1.60;;;;;;;-143.48;47.19;77070.34;5075278;28;20064;-43
2022/09/13 10:55:18;;;;;;;5.82;1.48;;;;;;;-143.48;47.53;77080.25;5075647;28;20035;-43
2022/09/13 10:57:45;;;;;;;9.67;1.77;;;;;;;-143.48;46.46;77014.81;5074963;28;20107;-44
2022/09/13 11:00:16;;;;;;;6.40;1.10;;;;;;;-143.48;45.04;76915.69;5075795;28;20086;-43
2022/09/13 11:03:12;;;;;;;6.88;1.63;;;;;;;-143.48;44.93;76923.63;5074947;28;20017;-44
2022/09/13 11:05:52;;;;;;;6.95;1.58;;;;;;;-143.48;45.52;76977.16;5075547;28;20032;-44
2022/09/13 11:08:51;;;;;;;5.38;1.65;;;;;;;-143.48;44.09;76909.75;5073949;28;20024;-43
2022/09/13 11:11:23;;;;;;;5.10;1.20;;;;;;;-143.48;45.77;77018.78;5074875;28;20061;-42
2022/09/13 11:13:59;;;;;;;7.35;1.30;;;;;;;-143.48;45.65;77040.59;5075245;28;20025;-43
2022/09/13 11:16:39;;;;;;;10.88;4.85;;;;;;;-143.48;45.34;77000.94;5056828;28;20056;-43
2022/09/13 11:19:30;;;;;;;4.35;1.58;;;;;;;-143.48;43.96;76909.75;5073166;28;20474;-44
2022/09/13 11:22:05;;;;;;;3.55;1.50;;;;;;;-143.48;44.53;76931.56;5075432;28;20032;-44
2022/09/13 11:24:42;;;;;;;3.60;1.40;;;;;;;-143.48;42.78;76820.53;5074841;28;20337;-43
2022/09/13 11:27:40;;;;;;;5.32;2.00;;;;;;;-143.48;40.92;76705.56;5055559;28;20047;-43
2022/09/13 11:30:44;;;;;;;3.55;1.50;;;;;;;-143.48;42.24;76872.09;5055468;28;20042;-45
2022/09/13 11:33:33;;;;;;;2.65;1.20;;;;;;;-143.48;42.59;76836.41;5054146;28;20021;-44